sensor_id;sensor_type;location;lat;lon;timestamp;temperature;humidity
36416;DHT22;22447;44.530;18.620;2022-10-31T00:01:37;9.50;99.90
36416;DHT22;22447;44.530;18.620;2022-10-31T00:04:04;9.40;99.90
36416;DHT22;22447;44.530;18.620;2022-10-31T00:06:30;9.40;99.90
36416;DHT22;22447;44.530;18.620;2022-10-31T00:08:58;9.20;99.90
36416;DHT22;22447;44.530;18.620;2022-10-31T00:11:24;9.30;99.90
36416;DHT22;22447;44.530;18.620;2022-10-31T00:13:51;9.40;99.90
36416;DHT22;22447;44.530;18.620;2022-10-31T00:16:21;9.40;99.90
36416;DHT22;22447;44.530;18.620;2022-10-31T00:18:52;9.40;99.90
36416;DHT22;22447;44.530;18.620;2022-10-31T00:21:19;9.40;99.90
36416;DHT22;22447;44.530;18.620;2022-10-31T00:23:45;9.40;99.90
36416;DHT22;22447;44.530;18.620;2022-10-31T00:26:11;9.30;99.90
36416;DHT22;22447;44.530;18.620;2022-10-31T00:28:37;9.20;99.90
36416;DHT22;22447;44.530;18.620;2022-10-31T00:31:05;9.10;99.90
36416;DHT22;22447;44.530;18.620;2022-10-31T00:33:36;9.10;99.90
36416;DHT22;22447;44.530;18.620;2022-10-31T00:36:04;9.10;99.90
36416;DHT22;22447;44.530;18.620;2022-10-31T00:38:32;9.00;99.90
36416;DHT22;22447;44.530;18.620;2022-10-31T00:40:58;8.90;99.90
36416;DHT22;22447;44.530;18.620;2022-10-31T00:43:24;8.90;99.90
36416;DHT22;22447;44.530;18.620;2022-10-31T00:45:50;8.90;99.90
36416;DHT22;22447;44.530;18.620;2022-10-31T00:48:16;8.90;99.90
36416;DHT22;22447;44.530;18.620;2022-10-31T00:50:42;8.90;99.90
36416;DHT22;22447;44.530;18.620;2022-10-31T00:53:08;9.00;99.90
36416;DHT22;22447;44.530;18.620;2022-10-31T00:55:34;8.80;99.90
36416;DHT22;22447;44.530;18.620;2022-10-31T00:58:00;8.80;99.90
36416;DHT22;22447;44.530;18.620;2022-10-31T01:00:26;8.80;99.90
36416;DHT22;22447;44.530;18.620;2022-10-31T01:02:52;8.80;99.90
36416;DHT22;22447;44.530;18.620;2022-10-31T01:05:18;8.80;99.90
36416;DHT22;22447;44.530;18.620;2022-10-31T01:07:45;8.80;99.90
36416;DHT22;22447;44.530;18.620;2022-10-31T01:10:11;8.70;99.90
36416;DHT22;22447;44.530;18.620;2022-10-31T01:12:42;8.70;99.90
36416;DHT22;22447;44.530;18.620;2022-10-31T01:15:09;8.70;99.90
36416;DHT22;22447;44.530;18.620;2022-10-31T01:17:36;8.80;99.90
36416;DHT22;22447;44.530;18.620;2022-10-31T01:20:03;8.70;99.90
36416;DHT22;22447;44.530;18.620;2022-10-31T01:22:30;8.60;99.90
36416;DHT22;22447;44.530;18.620;2022-10-31T01:25:00;8.70;99.90
36416;DHT22;22447;44.530;18.620;2022-10-31T01:27:26;8.80;99.90
36416;DHT22;22447;44.530;18.620;2022-10-31T01:29:51;8.80;99.90
36416;DHT22;22447;44.530;18.620;2022-10-31T01:32:17;8.80;99.90
36416;DHT22;22447;44.530;18.620;2022-10-31T01:34:44;8.70;99.90
36416;DHT22;22447;44.530;18.620;2022-10-31T01:37:12;8.70;99.90
36416;DHT22;22447;44.530;18.620;2022-10-31T01:39:38;8.70;99.90
36416;DHT22;22447;44.530;18.620;2022-10-31T01:42:04;8.90;99.90
36416;DHT22;22447;44.530;18.620;2022-10-31T01:47:17;8.70;99.90
36416;DHT22;22447;44.530;18.620;2022-10-31T01:49:52;8.60;99.90
36416;DHT22;22447;44.530;18.620;2022-10-31T01:52:24;8.50;99.90
36416;DHT22;22447;44.530;18.620;2022-10-31T01:54:56;8.50;99.90
36416;DHT22;22447;44.530;18.620;2022-10-31T01:57:25;8.50;99.90
36416;DHT22;22447;44.530;18.620;2022-10-31T01:59:55;8.30;99.90
36416;DHT22;22447;44.530;18.620;2022-10-31T02:02:23;8.30;99.90
36416;DHT22;22447;44.530;18.620;2022-10-31T02:04:51;8.30;99.90
36416;DHT22;22447;44.530;18.620;2022-10-31T02:07:30;8.30;99.90
36416;DHT22;22447;44.530;18.620;2022-10-31T02:09:58;8.30;99.90
36416;DHT22;22447;44.530;18.620;2022-10-31T02:12:26;8.20;99.90
36416;DHT22;22447;44.530;18.620;2022-10-31T02:14:59;8.20;99.90
36416;DHT22;22447;44.530;18.620;2022-10-31T02:17:25;8.20;99.90
36416;DHT22;22447;44.530;18.620;2022-10-31T02:23:16;8.20;99.90
36416;DHT22;22447;44.530;18.620;2022-10-31T02:34:15;8.10;99.90
36416;DHT22;22447;44.530;18.620;2022-10-31T02:44:41;8.00;99.90
36416;DHT22;22447;44.530;18.620;2022-10-31T02:47:16;8.00;99.90
36416;DHT22;22447;44.530;18.620;2022-10-31T02:49:50;7.90;99.90
36416;DHT22;22447;44.530;18.620;2022-10-31T02:52:21;7.90;99.90
36416;DHT22;22447;44.530;18.620;2022-10-31T02:54:49;7.90;99.90
36416;DHT22;22447;44.530;18.620;2022-10-31T02:57:20;7.90;99.90
36416;DHT22;22447;44.530;18.620;2022-10-31T02:59:57;8.00;99.90
36416;DHT22;22447;44.530;18.620;2022-10-31T03:02:27;7.90;99.90
36416;DHT22;22447;44.530;18.620;2022-10-31T03:15:51;7.90;99.90
36416;DHT22;22447;44.530;18.620;2022-10-31T03:18:27;8.00;99.90
36416;DHT22;22447;44.530;18.620;2022-10-31T03:21:14;8.00;99.90
36416;DHT22;22447;44.530;18.620;2022-10-31T03:23:42;8.00;99.90
36416;DHT22;22447;44.530;18.620;2022-10-31T03:26:11;7.90;99.90
36416;DHT22;22447;44.530;18.620;2022-10-31T03:28:44;7.90;99.90
36416;DHT22;22447;44.530;18.620;2022-10-31T03:31:13;7.80;99.90
36416;DHT22;22447;44.530;18.620;2022-10-31T03:33:42;7.80;99.90
36416;DHT22;22447;44.530;18.620;2022-10-31T03:36:11;7.80;99.90
36416;DHT22;22447;44.530;18.620;2022-10-31T03:38:38;7.90;99.90
36416;DHT22;22447;44.530;18.620;2022-10-31T03:41:07;7.80;99.90
36416;DHT22;22447;44.530;18.620;2022-10-31T03:43:41;7.80;99.90
36416;DHT22;22447;44.530;18.620;2022-10-31T03:46:08;7.80;99.90
36416;DHT22;22447;44.530;18.620;2022-10-31T03:48:34;7.80;99.90
36416;DHT22;22447;44.530;18.620;2022-10-31T03:54:40;7.70;99.90
36416;DHT22;22447;44.530;18.620;2022-10-31T03:57:03;7.70;99.90
36416;DHT22;22447;44.530;18.620;2022-10-31T04:02:30;7.70;99.90
36416;DHT22;22447;44.530;18.620;2022-10-31T04:04:58;7.70;99.90
36416;DHT22;22447;44.530;18.620;2022-10-31T04:07:28;7.60;99.90
36416;DHT22;22447;44.530;18.620;2022-10-31T04:09:56;7.60;99.90
36416;DHT22;22447;44.530;18.620;2022-10-31T04:12:24;7.60;99.90
36416;DHT22;22447;44.530;18.620;2022-10-31T04:15:14;7.60;99.90
36416;DHT22;22447;44.530;18.620;2022-10-31T04:17:42;7.60;99.90
36416;DHT22;22447;44.530;18.620;2022-10-31T04:20:10;7.60;99.90
36416;DHT22;22447;44.530;18.620;2022-10-31T04:22:36;7.60;99.90
36416;DHT22;22447;44.530;18.620;2022-10-31T04:25:02;7.60;99.90
36416;DHT22;22447;44.530;18.620;2022-10-31T04:27:28;7.50;99.90
36416;DHT22;22447;44.530;18.620;2022-10-31T04:29:54;7.50;99.90
36416;DHT22;22447;44.530;18.620;2022-10-31T04:32:20;7.60;99.90
36416;DHT22;22447;44.530;18.620;2022-10-31T04:34:45;7.60;99.90
36416;DHT22;22447;44.530;18.620;2022-10-31T04:37:11;7.50;99.90
36416;DHT22;22447;44.530;18.620;2022-10-31T04:39:38;7.50;99.90
36416;DHT22;22447;44.530;18.620;2022-10-31T04:42:22;7.50;99.90
36416;DHT22;22447;44.530;18.620;2022-10-31T04:44:48;7.50;99.90
36416;DHT22;22447;44.530;18.620;2022-10-31T04:47:14;7.40;99.90
36416;DHT22;22447;44.530;18.620;2022-10-31T04:49:42;7.40;99.90
36416;DHT22;22447;44.530;18.620;2022-10-31T04:52:10;7.40;99.90
36416;DHT22;22447;44.530;18.620;2022-10-31T04:54:36;7.40;99.90
36416;DHT22;22447;44.530;18.620;2022-10-31T04:57:47;7.40;99.90
36416;DHT22;22447;44.530;18.620;2022-10-31T05:00:17;7.60;99.90
36416;DHT22;22447;44.530;18.620;2022-10-31T05:02:48;7.60;99.90
36416;DHT22;22447;44.530;18.620;2022-10-31T05:05:16;7.40;99.90
36416;DHT22;22447;44.530;18.620;2022-10-31T05:07:44;7.40;99.90
36416;DHT22;22447;44.530;18.620;2022-10-31T05:10:11;7.40;99.90
36416;DHT22;22447;44.530;18.620;2022-10-31T05:12:48;7.30;99.90
36416;DHT22;22447;44.530;18.620;2022-10-31T05:15:34;7.30;99.90
36416;DHT22;22447;44.530;18.620;2022-10-31T05:18:18;7.30;99.90
36416;DHT22;22447;44.530;18.620;2022-10-31T05:21:03;7.20;99.90
36416;DHT22;22447;44.530;18.620;2022-10-31T05:23:38;7.30;99.90
36416;DHT22;22447;44.530;18.620;2022-10-31T05:26:08;7.30;99.90
36416;DHT22;22447;44.530;18.620;2022-10-31T05:28:34;7.30;99.90
36416;DHT22;22447;44.530;18.620;2022-10-31T05:31:00;7.30;99.90
36416;DHT22;22447;44.530;18.620;2022-10-31T05:33:26;7.40;99.90
36416;DHT22;22447;44.530;18.620;2022-10-31T05:36:11;7.40;99.90
36416;DHT22;22447;44.530;18.620;2022-10-31T05:39:12;7.40;99.90
36416;DHT22;22447;44.530;18.620;2022-10-31T05:41:45;7.60;99.90
36416;DHT22;22447;44.530;18.620;2022-10-31T05:44:25;7.60;99.90
36416;DHT22;22447;44.530;18.620;2022-10-31T05:47:05;7.60;99.90
36416;DHT22;22447;44.530;18.620;2022-10-31T05:49:49;7.60;99.90
36416;DHT22;22447;44.530;18.620;2022-10-31T05:52:45;7.70;99.90
36416;DHT22;22447;44.530;18.620;2022-10-31T05:55:25;7.90;99.90
36416;DHT22;22447;44.530;18.620;2022-10-31T05:58:14;8.20;99.90
36416;DHT22;22447;44.530;18.620;2022-10-31T06:00:48;8.40;99.90
36416;DHT22;22447;44.530;18.620;2022-10-31T06:03:15;8.70;99.90
36416;DHT22;22447;44.530;18.620;2022-10-31T06:05:46;9.10;99.90
36416;DHT22;22447;44.530;18.620;2022-10-31T06:08:13;9.40;99.90
36416;DHT22;22447;44.530;18.620;2022-10-31T06:10:40;10.10;99.90
36416;DHT22;22447;44.530;18.620;2022-10-31T06:13:06;10.70;99.90
36416;DHT22;22447;44.530;18.620;2022-10-31T06:15:52;10.90;99.90
36416;DHT22;22447;44.530;18.620;2022-10-31T06:18:22;11.30;99.90
36416;DHT22;22447;44.530;18.620;2022-10-31T06:20:50;11.60;99.90
36416;DHT22;22447;44.530;18.620;2022-10-31T06:23:16;12.20;99.90
36416;DHT22;22447;44.530;18.620;2022-10-31T06:25:49;12.60;99.90
36416;DHT22;22447;44.530;18.620;2022-10-31T06:28:14;13.00;99.90
36416;DHT22;22447;44.530;18.620;2022-10-31T06:30:50;13.30;99.60
36416;DHT22;22447;44.530;18.620;2022-10-31T06:33:16;13.90;97.90
36416;DHT22;22447;44.530;18.620;2022-10-31T06:35:52;14.10;95.40
36416;DHT22;22447;44.530;18.620;2022-10-31T06:38:18;14.40;96.00
36416;DHT22;22447;44.530;18.620;2022-10-31T06:40:45;14.80;93.70
36416;DHT22;22447;44.530;18.620;2022-10-31T06:43:22;15.10;92.70
36416;DHT22;22447;44.530;18.620;2022-10-31T06:45:52;15.40;92.70
36416;DHT22;22447;44.530;18.620;2022-10-31T06:48:30;16.00;90.80
36416;DHT22;22447;44.530;18.620;2022-10-31T06:51:15;16.20;90.00
36416;DHT22;22447;44.530;18.620;2022-10-31T06:53:41;16.20;87.40
36416;DHT22;22447;44.530;18.620;2022-10-31T06:56:10;16.50;85.40
36416;DHT22;22447;44.530;18.620;2022-10-31T06:58:40;16.20;86.30
36416;DHT22;22447;44.530;18.620;2022-10-31T07:01:08;16.50;86.70
36416;DHT22;22447;44.530;18.620;2022-10-31T07:03:34;17.00;83.10
36416;DHT22;22447;44.530;18.620;2022-10-31T07:06:01;17.20;81.40
36416;DHT22;22447;44.530;18.620;2022-10-31T07:08:27;17.10;82.60
36416;DHT22;22447;44.530;18.620;2022-10-31T07:10:56;17.20;82.00
36416;DHT22;22447;44.530;18.620;2022-10-31T07:13:23;17.30;81.20
36416;DHT22;22447;44.530;18.620;2022-10-31T07:16:03;17.60;80.90
36416;DHT22;22447;44.530;18.620;2022-10-31T07:18:32;18.00;79.70
36416;DHT22;22447;44.530;18.620;2022-10-31T07:20:58;18.10;80.10
36416;DHT22;22447;44.530;18.620;2022-10-31T07:23:26;18.20;79.00
36416;DHT22;22447;44.530;18.620;2022-10-31T07:26:10;18.50;75.30
36416;DHT22;22447;44.530;18.620;2022-10-31T07:28:41;18.80;75.80
36416;DHT22;22447;44.530;18.620;2022-10-31T07:31:08;18.90;74.60
36416;DHT22;22447;44.530;18.620;2022-10-31T07:33:34;18.70;74.80
36416;DHT22;22447;44.530;18.620;2022-10-31T07:36:18;18.50;74.30
36416;DHT22;22447;44.530;18.620;2022-10-31T07:38:47;18.60;75.50
36416;DHT22;22447;44.530;18.620;2022-10-31T07:41:13;18.70;75.20
36416;DHT22;22447;44.530;18.620;2022-10-31T07:43:45;19.20;74.00
36416;DHT22;22447;44.530;18.620;2022-10-31T07:46:17;19.40;71.60
36416;DHT22;22447;44.530;18.620;2022-10-31T07:48:59;19.60;71.50
36416;DHT22;22447;44.530;18.620;2022-10-31T07:51:43;19.60;70.90
36416;DHT22;22447;44.530;18.620;2022-10-31T07:54:12;20.20;72.00
36416;DHT22;22447;44.530;18.620;2022-10-31T07:56:38;20.60;68.50
36416;DHT22;22447;44.530;18.620;2022-10-31T07:59:05;20.70;67.80
36416;DHT22;22447;44.530;18.620;2022-10-31T08:01:31;20.60;68.40
36416;DHT22;22447;44.530;18.620;2022-10-31T08:04:17;20.90;66.00
36416;DHT22;22447;44.530;18.620;2022-10-31T08:07:02;21.10;66.00
36416;DHT22;22447;44.530;18.620;2022-10-31T08:09:34;21.60;65.80
36416;DHT22;22447;44.530;18.620;2022-10-31T08:12:06;21.60;65.70
36416;DHT22;22447;44.530;18.620;2022-10-31T08:14:33;21.50;64.60
36416;DHT22;22447;44.530;18.620;2022-10-31T08:17:00;21.60;64.40
36416;DHT22;22447;44.530;18.620;2022-10-31T08:19:34;21.80;63.60
36416;DHT22;22447;44.530;18.620;2022-10-31T08:22:01;21.90;65.40
36416;DHT22;22447;44.530;18.620;2022-10-31T08:24:27;22.10;63.90
36416;DHT22;22447;44.530;18.620;2022-10-31T08:26:53;22.40;62.20
36416;DHT22;22447;44.530;18.620;2022-10-31T08:29:19;22.40;65.10
36416;DHT22;22447;44.530;18.620;2022-10-31T08:31:46;23.10;62.50
36416;DHT22;22447;44.530;18.620;2022-10-31T08:34:30;23.30;60.50
36416;DHT22;22447;44.530;18.620;2022-10-31T08:37:35;23.30;60.40
36416;DHT22;22447;44.530;18.620;2022-10-31T08:40:02;23.80;58.60
36416;DHT22;22447;44.530;18.620;2022-10-31T08:42:33;24.20;57.00
36416;DHT22;22447;44.530;18.620;2022-10-31T08:44:59;24.40;56.90
36416;DHT22;22447;44.530;18.620;2022-10-31T08:47:26;24.60;56.00
36416;DHT22;22447;44.530;18.620;2022-10-31T08:49:58;24.60;54.50
36416;DHT22;22447;44.530;18.620;2022-10-31T08:52:25;25.00;54.40
36416;DHT22;22447;44.530;18.620;2022-10-31T08:54:58;24.90;54.10
36416;DHT22;22447;44.530;18.620;2022-10-31T08:57:42;25.30;52.30
36416;DHT22;22447;44.530;18.620;2022-10-31T09:00:10;25.50;52.50
36416;DHT22;22447;44.530;18.620;2022-10-31T09:03:01;25.60;51.70
36416;DHT22;22447;44.530;18.620;2022-10-31T09:05:30;25.60;50.50
36416;DHT22;22447;44.530;18.620;2022-10-31T09:07:58;25.80;49.50
36416;DHT22;22447;44.530;18.620;2022-10-31T09:10:25;26.20;47.90
36416;DHT22;22447;44.530;18.620;2022-10-31T09:12:59;26.30;47.10
36416;DHT22;22447;44.530;18.620;2022-10-31T09:18:54;26.80;42.90
36416;DHT22;22447;44.530;18.620;2022-10-31T09:21:20;27.20;43.80
36416;DHT22;22447;44.530;18.620;2022-10-31T09:23:52;27.50;44.30
36416;DHT22;22447;44.530;18.620;2022-10-31T09:26:19;27.60;42.80
36416;DHT22;22447;44.530;18.620;2022-10-31T09:28:55;27.00;42.30
36416;DHT22;22447;44.530;18.620;2022-10-31T09:31:23;27.40;41.70
36416;DHT22;22447;44.530;18.620;2022-10-31T09:34:11;26.90;42.70
36416;DHT22;22447;44.530;18.620;2022-10-31T09:37:01;27.70;42.00
36416;DHT22;22447;44.530;18.620;2022-10-31T09:39:27;27.60;41.20
36416;DHT22;22447;44.530;18.620;2022-10-31T09:48:06;28.30;40.70
36416;DHT22;22447;44.530;18.620;2022-10-31T09:56:14;28.90;40.80
36416;DHT22;22447;44.530;18.620;2022-10-31T09:58:46;28.80;39.50
36416;DHT22;22447;44.530;18.620;2022-10-31T10:07:25;29.30;39.30
36416;DHT22;22447;44.530;18.620;2022-10-31T10:24:44;30.30;36.60
36416;DHT22;22447;44.530;18.620;2022-10-31T10:30:20;30.60;36.30
36416;DHT22;22447;44.530;18.620;2022-10-31T10:32:51;30.80;35.30
36416;DHT22;22447;44.530;18.620;2022-10-31T10:35:33;30.70;36.10
36416;DHT22;22447;44.530;18.620;2022-10-31T10:38:31;31.00;34.30
36416;DHT22;22447;44.530;18.620;2022-10-31T10:41:01;30.70;35.10
36416;DHT22;22447;44.530;18.620;2022-10-31T10:43:36;30.40;34.30
36416;DHT22;22447;44.530;18.620;2022-10-31T10:49:26;30.50;35.20
36416;DHT22;22447;44.530;18.620;2022-10-31T10:52:16;30.90;34.00
36416;DHT22;22447;44.530;18.620;2022-10-31T10:57:55;30.80;34.40
36416;DHT22;22447;44.530;18.620;2022-10-31T11:00:26;31.20;33.90
36416;DHT22;22447;44.530;18.620;2022-10-31T11:02:53;31.10;33.50
36416;DHT22;22447;44.530;18.620;2022-10-31T11:05:26;31.00;33.70
36416;DHT22;22447;44.530;18.620;2022-10-31T11:07:53;31.20;32.60
36416;DHT22;22447;44.530;18.620;2022-10-31T11:10:20;31.30;32.40
36416;DHT22;22447;44.530;18.620;2022-10-31T11:16:02;32.00;33.00
36416;DHT22;22447;44.530;18.620;2022-10-31T11:18:38;32.30;31.80
36416;DHT22;22447;44.530;18.620;2022-10-31T11:21:05;32.20;31.90
36416;DHT22;22447;44.530;18.620;2022-10-31T11:23:32;32.30;32.40
36416;DHT22;22447;44.530;18.620;2022-10-31T11:26:00;32.20;33.60
36416;DHT22;22447;44.530;18.620;2022-10-31T11:28:28;32.40;32.00
36416;DHT22;22447;44.530;18.620;2022-10-31T11:31:08;31.60;32.90
36416;DHT22;22447;44.530;18.620;2022-10-31T11:34:01;31.50;34.00
36416;DHT22;22447;44.530;18.620;2022-10-31T11:36:30;31.70;32.70
36416;DHT22;22447;44.530;18.620;2022-10-31T11:38:59;32.10;31.00
36416;DHT22;22447;44.530;18.620;2022-10-31T11:41:33;32.00;33.00
36416;DHT22;22447;44.530;18.620;2022-10-31T11:44:03;32.30;31.90
36416;DHT22;22447;44.530;18.620;2022-10-31T11:48:59;32.30;31.80
36416;DHT22;22447;44.530;18.620;2022-10-31T11:51:28;31.70;32.50
36416;DHT22;22447;44.530;18.620;2022-10-31T11:53:58;31.70;32.50
36416;DHT22;22447;44.530;18.620;2022-10-31T11:56:24;31.70;33.00
36416;DHT22;22447;44.530;18.620;2022-10-31T11:59:01;31.10;33.20
36416;DHT22;22447;44.530;18.620;2022-10-31T12:01:29;31.20;33.80
36416;DHT22;22447;44.530;18.620;2022-10-31T12:04:09;31.30;33.90
36416;DHT22;22447;44.530;18.620;2022-10-31T12:14:52;32.30;32.30
36416;DHT22;22447;44.530;18.620;2022-10-31T12:17:28;32.60;30.00
36416;DHT22;22447;44.530;18.620;2022-10-31T12:20:30;32.20;30.90
36416;DHT22;22447;44.530;18.620;2022-10-31T12:23:03;32.20;31.20
36416;DHT22;22447;44.530;18.620;2022-10-31T12:25:50;32.40;30.00
36416;DHT22;22447;44.530;18.620;2022-10-31T12:31:25;32.60;29.70
36416;DHT22;22447;44.530;18.620;2022-10-31T12:40:15;32.30;29.70
36416;DHT22;22447;44.530;18.620;2022-10-31T12:45:54;32.30;30.00
36416;DHT22;22447;44.530;18.620;2022-10-31T12:54:16;32.40;29.80
36416;DHT22;22447;44.530;18.620;2022-10-31T12:59:45;32.10;29.40
36416;DHT22;22447;44.530;18.620;2022-10-31T13:04:53;31.70;30.00
36416;DHT22;22447;44.530;18.620;2022-10-31T13:07:39;31.70;29.50
36416;DHT22;22447;44.530;18.620;2022-10-31T13:12:39;32.20;30.60
36416;DHT22;22447;44.530;18.620;2022-10-31T13:15:16;32.10;28.90
36416;DHT22;22447;44.530;18.620;2022-10-31T13:18:11;31.70;29.20
36416;DHT22;22447;44.530;18.620;2022-10-31T13:20:40;31.70;28.80
36416;DHT22;22447;44.530;18.620;2022-10-31T13:23:26;31.90;28.90
36416;DHT22;22447;44.530;18.620;2022-10-31T13:25:57;31.30;29.30
36416;DHT22;22447;44.530;18.620;2022-10-31T13:28:38;31.00;30.00
36416;DHT22;22447;44.530;18.620;2022-10-31T13:31:06;31.10;29.60
36416;DHT22;22447;44.530;18.620;2022-10-31T13:42:00;31.20;31.00
36416;DHT22;22447;44.530;18.620;2022-10-31T13:44:29;30.70;33.60
36416;DHT22;22447;44.530;18.620;2022-10-31T13:46:58;30.90;34.20
36416;DHT22;22447;44.530;18.620;2022-10-31T13:57:30;30.30;36.70
36416;DHT22;22447;44.530;18.620;2022-10-31T14:00:03;30.30;35.70
36416;DHT22;22447;44.530;18.620;2022-10-31T14:02:43;29.80;36.00
36416;DHT22;22447;44.530;18.620;2022-10-31T14:07:53;29.40;38.20
36416;DHT22;22447;44.530;18.620;2022-10-31T14:10:25;29.30;37.80
36416;DHT22;22447;44.530;18.620;2022-10-31T14:16:04;28.90;38.20
36416;DHT22;22447;44.530;18.620;2022-10-31T14:18:36;28.60;41.30
36416;DHT22;22447;44.530;18.620;2022-10-31T14:23:48;28.40;42.10
36416;DHT22;22447;44.530;18.620;2022-10-31T14:28:57;28.10;42.60
36416;DHT22;22447;44.530;18.620;2022-10-31T14:34:38;27.50;42.90
36416;DHT22;22447;44.530;18.620;2022-10-31T14:50:47;25.70;48.40
36416;DHT22;22447;44.530;18.620;2022-10-31T14:53:22;25.40;49.50
36416;DHT22;22447;44.530;18.620;2022-10-31T14:55:50;25.10;51.40
36416;DHT22;22447;44.530;18.620;2022-10-31T14:58:24;25.00;51.60
36416;DHT22;22447;44.530;18.620;2022-10-31T15:00:55;24.50;52.80
36416;DHT22;22447;44.530;18.620;2022-10-31T15:03:34;24.30;53.50
36416;DHT22;22447;44.530;18.620;2022-10-31T15:06:14;24.00;54.30
36416;DHT22;22447;44.530;18.620;2022-10-31T15:11:16;23.30;56.20
36416;DHT22;22447;44.530;18.620;2022-10-31T15:16:40;22.80;57.60
36416;DHT22;22447;44.530;18.620;2022-10-31T15:19:10;22.40;58.40
36416;DHT22;22447;44.530;18.620;2022-10-31T15:21:44;22.00;58.90
36416;DHT22;22447;44.530;18.620;2022-10-31T15:24:14;21.70;59.30
36416;DHT22;22447;44.530;18.620;2022-10-31T15:26:48;21.60;59.80
36416;DHT22;22447;44.530;18.620;2022-10-31T15:29:19;21.40;60.60
36416;DHT22;22447;44.530;18.620;2022-10-31T15:31:59;21.20;61.50
36416;DHT22;22447;44.530;18.620;2022-10-31T15:34:42;21.00;62.60
36416;DHT22;22447;44.530;18.620;2022-10-31T15:37:12;20.70;63.60
36416;DHT22;22447;44.530;18.620;2022-10-31T15:39:39;20.30;65.30
36416;DHT22;22447;44.530;18.620;2022-10-31T15:44:44;19.80;67.70
36416;DHT22;22447;44.530;18.620;2022-10-31T15:47:20;19.50;68.30
36416;DHT22;22447;44.530;18.620;2022-10-31T15:49:50;19.30;70.10
36416;DHT22;22447;44.530;18.620;2022-10-31T15:54:59;18.90;73.10
36416;DHT22;22447;44.530;18.620;2022-10-31T15:57:25;18.90;75.20
36416;DHT22;22447;44.530;18.620;2022-10-31T15:59:52;18.80;77.30
36416;DHT22;22447;44.530;18.620;2022-10-31T16:02:22;18.60;80.70
36416;DHT22;22447;44.530;18.620;2022-10-31T16:05:00;18.50;84.30
36416;DHT22;22447;44.530;18.620;2022-10-31T16:07:28;18.40;88.10
36416;DHT22;22447;44.530;18.620;2022-10-31T16:09:56;18.10;91.60
36416;DHT22;22447;44.530;18.620;2022-10-31T16:12:23;18.00;93.70
36416;DHT22;22447;44.530;18.620;2022-10-31T16:14:51;17.90;94.90
36416;DHT22;22447;44.530;18.620;2022-10-31T16:17:21;17.60;96.60
36416;DHT22;22447;44.530;18.620;2022-10-31T16:22:25;17.40;99.30
36416;DHT22;22447;44.530;18.620;2022-10-31T16:25:10;17.20;99.90
36416;DHT22;22447;44.530;18.620;2022-10-31T16:27:37;17.10;99.90
36416;DHT22;22447;44.530;18.620;2022-10-31T16:30:35;16.90;99.90
36416;DHT22;22447;44.530;18.620;2022-10-31T16:33:02;16.90;99.90
36416;DHT22;22447;44.530;18.620;2022-10-31T16:35:33;16.90;99.90
36416;DHT22;22447;44.530;18.620;2022-10-31T16:38:00;16.80;99.90
36416;DHT22;22447;44.530;18.620;2022-10-31T16:40:26;16.70;99.90
36416;DHT22;22447;44.530;18.620;2022-10-31T16:42:52;16.70;99.90
36416;DHT22;22447;44.530;18.620;2022-10-31T16:45:23;16.50;99.90
36416;DHT22;22447;44.530;18.620;2022-10-31T16:47:50;16.40;99.90
36416;DHT22;22447;44.530;18.620;2022-10-31T16:50:26;16.20;99.90
36416;DHT22;22447;44.530;18.620;2022-10-31T16:52:52;16.10;99.90
36416;DHT22;22447;44.530;18.620;2022-10-31T16:55:19;16.10;99.90
36416;DHT22;22447;44.530;18.620;2022-10-31T16:57:48;15.90;99.90
36416;DHT22;22447;44.530;18.620;2022-10-31T17:00:24;15.80;99.90
36416;DHT22;22447;44.530;18.620;2022-10-31T17:02:55;15.70;99.90
36416;DHT22;22447;44.530;18.620;2022-10-31T17:05:25;15.70;99.90
36416;DHT22;22447;44.530;18.620;2022-10-31T17:07:57;15.60;99.90
36416;DHT22;22447;44.530;18.620;2022-10-31T17:10:24;15.50;99.90
36416;DHT22;22447;44.530;18.620;2022-10-31T17:12:51;15.50;99.90
36416;DHT22;22447;44.530;18.620;2022-10-31T17:15:28;15.50;99.90
36416;DHT22;22447;44.530;18.620;2022-10-31T17:17:54;15.40;99.90
36416;DHT22;22447;44.530;18.620;2022-10-31T17:20:26;15.30;99.90
36416;DHT22;22447;44.530;18.620;2022-10-31T17:22:53;15.20;99.90
36416;DHT22;22447;44.530;18.620;2022-10-31T17:25:21;15.10;99.90
36416;DHT22;22447;44.530;18.620;2022-10-31T17:27:48;15.00;99.90
36416;DHT22;22447;44.530;18.620;2022-10-31T17:30:15;14.90;99.90
36416;DHT22;22447;44.530;18.620;2022-10-31T17:32:44;14.80;99.90
36416;DHT22;22447;44.530;18.620;2022-10-31T17:35:11;14.70;99.90
36416;DHT22;22447;44.530;18.620;2022-10-31T17:37:38;14.70;99.90
36416;DHT22;22447;44.530;18.620;2022-10-31T17:40:05;14.60;99.90
36416;DHT22;22447;44.530;18.620;2022-10-31T17:42:31;14.50;99.90
36416;DHT22;22447;44.530;18.620;2022-10-31T17:44:57;14.50;99.90
36416;DHT22;22447;44.530;18.620;2022-10-31T17:47:22;14.50;99.90
36416;DHT22;22447;44.530;18.620;2022-10-31T17:49:48;14.40;99.90
36416;DHT22;22447;44.530;18.620;2022-10-31T17:52:14;14.30;99.90
36416;DHT22;22447;44.530;18.620;2022-10-31T17:54:40;14.30;99.90
36416;DHT22;22447;44.530;18.620;2022-10-31T17:57:06;14.20;99.90
36416;DHT22;22447;44.530;18.620;2022-10-31T17:59:32;14.10;99.90
36416;DHT22;22447;44.530;18.620;2022-10-31T18:01:58;14.00;99.90
36416;DHT22;22447;44.530;18.620;2022-10-31T18:04:25;13.90;99.90
36416;DHT22;22447;44.530;18.620;2022-10-31T18:06:51;13.80;99.90
36416;DHT22;22447;44.530;18.620;2022-10-31T18:09:17;13.80;99.90
36416;DHT22;22447;44.530;18.620;2022-10-31T18:11:43;13.70;99.90
36416;DHT22;22447;44.530;18.620;2022-10-31T18:14:09;13.70;99.90
36416;DHT22;22447;44.530;18.620;2022-10-31T18:16:35;13.70;99.90
36416;DHT22;22447;44.530;18.620;2022-10-31T18:19:01;13.50;99.90
36416;DHT22;22447;44.530;18.620;2022-10-31T18:21:29;13.50;99.90
36416;DHT22;22447;44.530;18.620;2022-10-31T18:23:56;13.40;99.90
36416;DHT22;22447;44.530;18.620;2022-10-31T18:26:23;13.30;99.90
36416;DHT22;22447;44.530;18.620;2022-10-31T18:28:50;13.20;99.90
36416;DHT22;22447;44.530;18.620;2022-10-31T18:31:17;13.10;99.90
36416;DHT22;22447;44.530;18.620;2022-10-31T18:33:43;13.00;99.90
36416;DHT22;22447;44.530;18.620;2022-10-31T18:36:10;13.10;99.90
36416;DHT22;22447;44.530;18.620;2022-10-31T18:38:40;13.00;99.90
36416;DHT22;22447;44.530;18.620;2022-10-31T18:41:07;12.90;99.90
36416;DHT22;22447;44.530;18.620;2022-10-31T18:43:34;12.90;99.90
36416;DHT22;22447;44.530;18.620;2022-10-31T18:46:01;12.90;99.90
36416;DHT22;22447;44.530;18.620;2022-10-31T18:48:27;12.80;99.90